Terminal Aerodrome Forecast
Issued by NWS

Home | Current Version | Previous Version | Text Only | Print | Product List | Glossary Off
Versions: 1 2 3 4 5 6 7 8 9 10 11 12 13 14 15 16 17 18 19 20 21

521
FTUS43 KPAH 291438 AAA
TAFCGI
TAF AMD
KCGI 291438Z 2915/3012 10008KT 6SM -SHRA BKN045 OVC070
     FM291600 08007KT P6SM SCT045 BKN250
     FM292300 13007KT P6SM BKN050
     FM300700 14007KT 3SM TSRA BR BKN025CB
     FM301000 16010KT 6SM -SHRA BR BKN025=

USA.gov is the U.S. government's official web portal to all federal, state and local government web resources and services.